Aeroporto :
LOGIN :

Iscrizione | Disclaimer

   EN    FR    IT 

 










Sommario :    VFR   VFR Marginale   IFR   IFR Intensivo   IFR Molto Intensivo
Visibilità : 
Base nubi : 
>= 8 km
>= 3000ft
5 / 8 km
1000 / 3000 ft
1500m / 5 km
500 / 1000 ft
800 / 1500m
200 / 500 ft
< 800m
< 200 ft
Simboli :   Temporali  Nebbia  Neve Forte  Precipitazioni Forti  Vento > 20 kt
SIGMETs :   Varie  Temporali  Ghiacco  Turbolenza  Onda orograficha  Ceneri Vulcaniche






- Altitudine del aeroporto : 157 ft
- Codice IATA : SXF


EDDB - Berlin Schönefeld

ULTIMO METAR :
  • 210350Z 14005KT 9999 -RA BKN035 10/09 Q1011 NOSIG

METARs OBSOLETI :
  • 210320Z 19007KT 9999 -RA BKN043 10/09 Q1011 NOSIG
  • 210250Z 19007KT 9999 -RA BKN045 10/09 Q1011 NOSIG
  • 210220Z 19008KT 9999 -RA SCT033 10/08 Q1011 NOSIG
  • 210150Z 19006KT 9999 -RA SCT033 10/09 Q1011 NOSIG
  • 210120Z 19005KT 160V230 9999 -RA SCT033 11/09 Q1011 NOSIG

TAF TAF EDDB
Valido dal 21 a 00 ore il 22 a 00 ore UTC


202300Z 2100/2124 18007KT 9999 FEW020 BKN045
PROB30
TEMPO 2100/2104 4500 RADZ
BECMG 2113/2115 21012KT



MetMap, La meteo Aeronautica in un colpo d'occhio ! - Copyright ORBIFLY Dicembre 2007 - Disclaimer

ORBIFLY MET'MAP TEAM :

Programmazione e sviluppo : Alexandra Zaïnal
Concezione : Baudouin d'Aumeries
Aiuto per la programmazione : Marc-Olivier Méhu
Supporto tecnico e logistico : Manuel Goepfert
Aiuto per la traduzione : Arnaldo La Scala

Contatto : metmap@orbifly.com




FONTI E CREDITI :

   NOAA